createdAt,value
2023-04-16T00:01:56.638Z,1.83
2023-04-16T00:03:59.591Z,1.60
2023-04-16T00:06:04.467Z,1.92
2023-04-16T00:08:07.531Z,2.88
2023-04-16T00:10:10.549Z,2.13
2023-04-16T00:12:13.319Z,2.15
2023-04-16T00:14:16.130Z,2.63
2023-04-16T00:16:18.880Z,2.50
2023-04-16T00:18:21.714Z,2.53
2023-04-16T00:20:24.403Z,2.25
2023-04-16T00:22:27.208Z,2.42
2023-04-16T00:24:29.899Z,1.92
2023-04-16T00:26:32.638Z,1.85
2023-04-16T00:28:35.481Z,1.85
2023-04-16T00:30:38.286Z,1.88
2023-04-16T00:32:41.136Z,1.55
2023-04-16T00:34:44.031Z,2.30
2023-04-16T00:36:46.786Z,2.05
2023-04-16T00:38:49.476Z,1.75
2023-04-16T00:40:52.209Z,1.77
2023-04-16T00:42:55.041Z,3.03
2023-04-16T00:44:57.728Z,1.02
2023-04-16T00:47:00.658Z,1.77
2023-04-16T00:49:04.125Z,1.92
2023-04-16T00:51:07.828Z,1.42
2023-04-16T00:53:10.748Z,1.35
2023-04-16T00:55:13.772Z,1.10
2023-04-16T00:57:17.329Z,2.72
2023-04-16T00:59:20.388Z,2.10
2023-04-16T01:01:23.345Z,1.83
2023-04-16T01:03:41.586Z,2.33
2023-04-16T01:05:46.191Z,1.83
2023-04-16T01:07:49.065Z,2.67
2023-04-16T01:09:51.870Z,1.50
2023-04-16T01:11:54.642Z,2.17
2023-04-16T01:13:57.486Z,2.00
2023-04-16T01:16:01.709Z,2.55
2023-04-16T01:18:15.128Z,1.92
2023-04-16T01:20:18.001Z,2.20
2023-04-16T01:22:20.887Z,2.20
2023-04-16T01:24:23.653Z,2.40
2023-04-16T01:26:26.451Z,3.20
2023-04-16T01:28:29.283Z,2.80
2023-04-16T01:30:32.017Z,2.88
2023-04-16T01:32:34.832Z,1.92
2023-04-16T01:34:37.548Z,2.47
2023-04-16T01:36:40.330Z,2.38
2023-04-16T01:38:43.351Z,1.80
2023-04-16T01:40:46.065Z,1.20
2023-04-16T01:42:48.738Z,2.05
2023-04-16T01:44:51.545Z,2.00
2023-04-16T01:46:54.849Z,2.17
2023-04-16T01:48:58.574Z,4.28
2023-04-16T01:51:01.400Z,1.75
2023-04-16T01:53:05.355Z,2.28
2023-04-16T01:55:08.652Z,2.63
2023-04-16T01:57:11.481Z,2.40
2023-04-16T01:59:14.325Z,2.40
2023-04-16T02:01:17.262Z,2.33
2023-04-16T02:03:20.266Z,2.17
2023-04-16T02:05:23.372Z,2.85
2023-04-16T02:07:27.593Z,2.13
2023-04-16T02:09:30.318Z,2.97
2023-04-16T02:11:33.069Z,2.30
2023-04-16T02:13:35.941Z,2.55
2023-04-16T02:15:38.847Z,2.38
2023-04-16T02:17:41.832Z,2.47
2023-04-16T02:19:44.785Z,2.03
2023-04-16T02:21:48.014Z,1.98
2023-04-16T02:23:52.003Z,1.63
2023-04-16T02:25:54.967Z,2.90
2023-04-16T02:27:57.982Z,2.75
2023-04-16T02:30:00.991Z,2.38
2023-04-16T02:32:03.890Z,2.70
2023-04-16T02:34:07.141Z,2.20
2023-04-16T02:36:11.467Z,2.22
2023-04-16T02:38:14.416Z,3.85
2023-04-16T02:40:17.388Z,2.30
2023-04-16T02:42:20.048Z,3.15
2023-04-16T02:44:22.948Z,1.58
2023-04-16T02:46:26.067Z,3.58
2023-04-16T02:48:29.097Z,2.05
2023-04-16T02:50:31.998Z,1.55
2023-04-16T02:52:34.688Z,1.90
2023-04-16T02:54:37.365Z,2.58
2023-04-16T02:56:40.215Z,2.75
2023-04-16T02:58:42.966Z,3.28
2023-04-16T03:00:45.907Z,3.30
2023-04-16T03:02:48.961Z,3.65
2023-04-16T03:04:51.801Z,2.55
2023-04-16T03:06:54.531Z,2.88
2023-04-16T03:08:59.016Z,3.13
2023-04-16T03:11:01.800Z,3.05
2023-04-16T03:13:05.055Z,3.22
2023-04-16T03:15:08.353Z,2.22
2023-04-16T03:17:11.162Z,1.67
2023-04-16T03:19:13.903Z,2.30
2023-04-16T03:21:16.647Z,1.85
2023-04-16T03:23:19.856Z,2.13
2023-04-16T03:25:22.581Z,1.42
2023-04-16T03:27:25.609Z,1.60
2023-04-16T03:29:28.649Z,2.05
2023-04-16T03:31:31.636Z,1.80
2023-04-16T03:33:34.410Z,2.13
2023-04-16T03:35:37.210Z,1.88
2023-04-16T03:37:39.884Z,1.52
2023-04-16T03:39:42.566Z,1.35
2023-04-16T03:41:45.380Z,1.45
2023-04-16T03:43:48.046Z,1.63
2023-04-16T03:45:51.147Z,1.20
2023-04-16T03:47:54.008Z,1.35
2023-04-16T03:49:56.930Z,2.03
2023-04-16T03:51:59.875Z,2.17
2023-04-16T03:54:02.593Z,1.67
2023-04-16T03:56:05.539Z,1.83
2023-04-16T03:58:08.544Z,3.63
2023-04-16T04:00:11.957Z,1.67
2023-04-16T04:02:14.730Z,1.88
2023-04-16T04:04:17.862Z,1.77
2023-04-16T04:06:20.721Z,1.48
2023-04-16T04:08:23.522Z,1.95
2023-04-16T04:10:26.604Z,1.48
2023-04-16T04:12:29.198Z,1.50
2023-04-16T04:14:32.563Z,1.55
2023-04-16T04:16:35.726Z,1.25
2023-04-16T04:18:38.428Z,1.80
2023-04-16T04:20:41.608Z,1.10
2023-04-16T04:22:44.454Z,1.25
2023-04-16T04:24:47.121Z,1.83
2023-04-16T04:26:49.902Z,2.47
2023-04-16T04:28:52.700Z,1.48
2023-04-16T04:30:55.482Z,1.33
2023-04-16T04:32:58.592Z,0.90
2023-04-16T04:35:03.015Z,1.20
2023-04-16T04:37:08.614Z,1.52
2023-04-16T04:39:11.418Z,1.40
2023-04-16T04:41:14.262Z,1.63
2023-04-16T04:43:19.216Z,1.27
2023-04-16T04:45:25.641Z,1.10
2023-04-16T04:47:28.538Z,0.95
2023-04-16T04:49:31.423Z,1.23
2023-04-16T04:51:34.228Z,1.00
2023-04-16T04:53:36.907Z,1.23
2023-04-16T04:55:40.632Z,1.33
2023-04-16T04:57:43.551Z,1.13
2023-04-16T04:59:46.448Z,1.73
2023-04-16T05:01:49.714Z,1.17
2023-04-16T05:03:52.673Z,1.10
2023-04-16T05:05:55.429Z,1.20
2023-04-16T05:07:58.305Z,1.48
2023-04-16T05:10:00.990Z,1.60
2023-04-16T05:12:04.917Z,1.40
2023-04-16T05:14:07.914Z,1.17
2023-04-16T05:16:10.920Z,1.52
2023-04-16T05:18:13.786Z,1.48
2023-04-16T05:20:16.530Z,1.60
2023-04-16T05:22:19.301Z,1.40
2023-04-16T05:24:22.672Z,1.55
2023-04-16T05:26:28.506Z,1.17
2023-04-16T05:28:31.548Z,1.70
2023-04-16T05:30:34.281Z,1.70
2023-04-16T05:32:41.191Z,1.30
2023-04-16T05:34:43.972Z,1.30
2023-04-16T05:36:47.293Z,1.60
2023-04-16T05:39:08.143Z,1.27
2023-04-16T05:41:11.271Z,1.23
2023-04-16T05:43:14.006Z,1.10
2023-04-16T05:45:17.339Z,1.10
2023-04-16T05:47:20.173Z,1.27
2023-04-16T05:49:23.162Z,1.27
2023-04-16T05:51:28.132Z,1.10
2023-04-16T05:53:30.998Z,1.38
2023-04-16T05:55:34.336Z,1.30
2023-04-16T05:57:40.093Z,1.60
2023-04-16T05:59:42.790Z,0.98
2023-04-16T06:01:45.632Z,1.65
2023-04-16T06:03:48.536Z,0.73
2023-04-16T06:05:51.772Z,1.23
2023-04-16T06:07:54.672Z,1.42
2023-04-16T06:09:57.387Z,1.50
2023-04-16T06:12:01.329Z,1.20
2023-04-16T06:14:04.306Z,0.95
2023-04-16T06:16:07.204Z,1.20
2023-04-16T06:18:12.649Z,0.98
2023-04-16T06:20:15.598Z,1.23
2023-04-16T06:22:18.475Z,1.00
2023-04-16T06:24:21.462Z,1.33
2023-04-16T06:26:24.356Z,1.10
2023-04-16T06:28:27.470Z,1.02
2023-04-16T06:30:30.539Z,1.10
2023-04-16T06:32:33.460Z,1.30
2023-04-16T06:34:37.758Z,1.27
2023-04-16T06:36:40.543Z,1.10
2023-04-16T06:38:43.426Z,1.13
2023-04-16T06:40:46.217Z,1.15
2023-04-16T06:42:49.093Z,2.25
2023-04-16T06:44:52.065Z,0.98
2023-04-16T06:46:54.965Z,0.95
2023-04-16T06:48:57.742Z,1.40
2023-04-16T06:51:00.777Z,1.75
2023-04-16T06:53:04.012Z,1.55
2023-04-16T06:55:10.025Z,1.48
2023-04-16T06:57:12.872Z,1.38
2023-04-16T06:59:15.995Z,1.33
2023-04-16T07:01:19.037Z,1.35
2023-04-16T07:03:22.185Z,1.50
2023-04-16T07:05:25.198Z,1.38
2023-04-16T07:07:28.026Z,1.20
2023-04-16T07:09:30.741Z,1.13
2023-04-16T07:11:33.570Z,1.20
2023-04-16T07:13:36.253Z,1.23
2023-04-16T07:15:38.943Z,1.30
2023-04-16T07:17:50.473Z,1.00
2023-04-16T07:19:53.330Z,1.15
2023-04-16T07:21:57.475Z,0.73
2023-04-16T07:24:01.185Z,1.20
2023-04-16T07:26:03.918Z,1.90
2023-04-16T07:28:06.697Z,0.98
2023-04-16T07:30:09.799Z,0.80
2023-04-16T07:32:15.310Z,0.85
2023-04-16T07:34:18.605Z,0.80
2023-04-16T07:36:21.514Z,0.63
2023-04-16T07:38:24.280Z,0.88
2023-04-16T07:40:27.147Z,0.60
2023-04-16T07:42:31.278Z,0.80
2023-04-16T07:44:35.646Z,0.65
2023-04-16T07:46:47.020Z,0.82
2023-04-16T07:48:50.512Z,0.60
2023-04-16T07:50:53.705Z,0.30
2023-04-16T07:52:57.050Z,0.50
2023-04-16T07:54:59.773Z,0.45
2023-04-16T07:57:02.620Z,0.60
2023-04-16T07:59:19.133Z,0.55
2023-04-16T08:01:24.626Z,0.98
2023-04-16T08:03:27.948Z,0.43
2023-04-16T08:05:31.059Z,0.50
2023-04-16T08:07:34.829Z,0.38
2023-04-16T08:09:48.271Z,0.80
2023-04-16T08:11:51.286Z,0.40
2023-04-16T08:13:54.045Z,0.70
2023-04-16T08:15:56.931Z,0.52
2023-04-16T08:17:59.955Z,0.70
2023-04-16T08:20:02.901Z,0.60
2023-04-16T08:22:08.070Z,0.80
2023-04-16T08:24:11.049Z,0.50
2023-04-16T08:26:13.884Z,1.00
2023-04-16T08:28:16.654Z,0.65
2023-04-16T08:30:19.776Z,0.60
2023-04-16T08:32:22.608Z,0.80
2023-04-16T08:34:25.651Z,1.00
2023-04-16T08:36:28.527Z,0.70
2023-04-16T08:38:31.420Z,0.50
2023-04-16T08:40:39.029Z,0.70
2023-04-16T08:42:56.217Z,0.80
2023-04-16T08:45:09.374Z,0.68
2023-04-16T08:47:13.210Z,0.95
2023-04-16T08:49:20.168Z,0.90
2023-04-16T08:51:27.678Z,0.60
2023-04-16T08:53:39.684Z,0.73
2023-04-16T08:55:50.929Z,0.50
2023-04-16T08:58:03.690Z,0.95
2023-04-16T09:00:11.488Z,1.00
2023-04-16T09:02:15.818Z,0.68
2023-04-16T09:04:20.324Z,0.63
2023-04-16T09:06:23.618Z,0.60
2023-04-16T09:08:29.008Z,0.35
2023-04-16T09:10:33.265Z,0.70
2023-04-16T09:12:36.398Z,0.73
2023-04-16T09:14:42.343Z,0.40
2023-04-16T09:16:48.461Z,1.25
2023-04-16T09:18:53.861Z,0.60
2023-04-16T09:21:00.212Z,0.75
2023-04-16T09:23:05.473Z,0.40
2023-04-16T09:25:11.227Z,0.60
2023-04-16T09:27:14.401Z,0.57
2023-04-16T09:29:37.090Z,0.75
2023-04-16T09:31:40.553Z,0.85
2023-04-16T09:33:47.409Z,0.73
2023-04-16T09:35:53.829Z,0.60
2023-04-16T09:37:58.292Z,0.65
2023-04-16T09:40:05.121Z,0.52
2023-04-16T09:42:11.850Z,0.68
2023-04-16T09:44:14.852Z,0.80
2023-04-16T09:46:18.674Z,0.52
2023-04-16T09:48:32.597Z,0.65
2023-04-16T09:50:35.611Z,0.93
2023-04-16T09:52:39.658Z,0.43
2023-04-16T09:55:01.519Z,0.65
2023-04-16T09:57:06.585Z,0.80
2023-04-16T09:59:17.819Z,0.60
2023-04-16T10:01:32.970Z,0.70
2023-04-16T10:03:39.357Z,0.60
2023-04-16T10:05:42.624Z,0.70
2023-04-16T10:07:45.353Z,0.52
2023-04-16T10:09:49.406Z,1.40
2023-04-16T10:11:52.289Z,0.98
2023-04-16T10:13:55.075Z,0.43
2023-04-16T10:15:59.029Z,0.50
2023-04-16T10:18:04.569Z,0.40
2023-04-16T10:20:08.623Z,0.57
2023-04-16T10:22:11.932Z,0.82
2023-04-16T10:24:17.663Z,0.90
2023-04-16T10:26:21.494Z,0.50
2023-04-16T10:28:25.186Z,0.40
2023-04-16T10:30:28.441Z,0.68
2023-04-16T10:32:33.079Z,0.45
2023-04-16T10:34:36.723Z,0.50
2023-04-16T10:36:42.964Z,0.60
2023-04-16T10:38:53.092Z,0.47
2023-04-16T10:41:03.037Z,0.50
2023-04-16T10:43:07.510Z,0.55
2023-04-16T10:45:12.204Z,0.47
2023-04-16T10:47:17.025Z,0.40
2023-04-16T10:49:24.235Z,0.50
2023-04-16T10:51:33.963Z,0.57
2023-04-16T10:53:37.683Z,0.50
2023-04-16T10:55:40.863Z,0.52
2023-04-16T10:57:44.172Z,0.60
2023-04-16T10:59:49.674Z,0.50
2023-04-16T11:01:57.159Z,0.60
2023-04-16T11:04:02.768Z,0.47
2023-04-16T11:06:17.849Z,0.65
2023-04-16T11:08:21.414Z,0.70
2023-04-16T11:10:24.224Z,3.63
2023-04-16T11:12:29.976Z,0.68
2023-04-16T11:14:34.132Z,16.08
2023-04-16T11:16:41.340Z,0.52
2023-04-16T11:18:51.548Z,0.85
2023-04-16T11:20:55.130Z,1.15
2023-04-16T11:22:58.712Z,0.75
2023-04-16T11:25:01.493Z,0.30
2023-04-16T11:27:05.435Z,0.60
2023-04-16T11:29:15.838Z,0.50
2023-04-16T11:31:19.416Z,0.73
2023-04-16T11:33:22.361Z,0.77
2023-04-16T11:35:25.265Z,6.28
2023-04-16T11:37:35.749Z,0.50
2023-04-16T11:39:53.964Z,21.73
2023-04-16T11:41:56.800Z,7.05
2023-04-16T11:43:59.618Z,52.45
2023-04-16T11:46:20.068Z,162.43
2023-04-16T11:48:46.494Z,376.77
2023-04-16T11:53:06.571Z,129.52
2023-04-16T11:55:09.712Z,164.40
2023-04-16T11:57:13.526Z,176.55
2023-04-16T11:59:19.521Z,86.05
2023-04-16T12:01:22.467Z,2.80
2023-04-16T12:03:46.297Z,0.50
2023-04-16T12:05:49.460Z,1.10
2023-04-16T12:07:52.289Z,0.80
2023-04-16T12:10:07.553Z,0.60
2023-04-16T12:12:27.492Z,0.50
2023-04-16T12:14:31.415Z,0.40
2023-04-16T12:16:35.719Z,0.50
2023-04-16T12:18:59.756Z,0.50
2023-04-16T12:21:05.879Z,0.40
2023-04-16T12:23:09.271Z,0.60
2023-04-16T12:25:13.998Z,0.70
2023-04-16T12:27:17.007Z,0.52
2023-04-16T12:29:24.906Z,0.50
2023-04-16T12:31:38.473Z,0.65
2023-04-16T12:33:42.735Z,0.57
2023-04-16T12:35:46.000Z,0.60
2023-04-16T12:37:48.843Z,0.80
2023-04-16T12:39:51.518Z,3.72
2023-04-16T12:41:54.219Z,4.20
2023-04-16T12:44:18.468Z,7.43
2023-04-16T12:46:21.367Z,21.52
2023-04-16T12:48:24.285Z,19.88
2023-04-16T12:50:29.068Z,13.98
2023-04-16T12:52:31.948Z,18.50
2023-04-16T12:54:34.717Z,16.75
2023-04-16T12:56:37.563Z,12.50
2023-04-16T12:58:40.293Z,9.50
2023-04-16T13:00:43.039Z,8.13
2023-04-16T13:02:46.234Z,7.85
2023-04-16T13:04:52.754Z,5.28
2023-04-16T13:06:55.723Z,5.50
2023-04-16T13:08:58.637Z,6.40
2023-04-16T13:11:01.441Z,5.35
2023-04-16T13:13:04.212Z,5.10
2023-04-16T13:15:07.561Z,4.80
2023-04-16T13:17:10.448Z,3.63
2023-04-16T13:19:13.503Z,2.95
2023-04-16T13:21:16.511Z,2.70
2023-04-16T13:23:19.256Z,2.35
2023-04-16T13:25:22.028Z,1.85
2023-04-16T13:27:24.818Z,2.10
2023-04-16T13:29:27.684Z,2.25
2023-04-16T13:31:30.667Z,3.38
2023-04-16T13:33:33.424Z,3.90
2023-04-16T13:35:36.136Z,3.72
2023-04-16T13:37:39.231Z,2.75
2023-04-16T13:39:42.186Z,1.50
2023-04-16T13:41:45.032Z,1.20
2023-04-16T13:43:47.802Z,0.90
2023-04-16T13:45:50.690Z,0.70
2023-04-16T13:47:53.515Z,1.10
2023-04-16T13:49:56.582Z,0.85
2023-04-16T13:51:59.241Z,1.23
2023-04-16T13:54:02.096Z,1.35
2023-04-16T13:56:05.385Z,0.70
2023-04-16T13:58:08.082Z,0.80
2023-04-16T14:00:13.214Z,0.45
2023-04-16T14:02:16.728Z,0.65
2023-04-16T14:04:19.633Z,0.43
2023-04-16T14:06:22.609Z,0.32
2023-04-16T14:08:25.530Z,0.60
2023-04-16T14:10:28.367Z,0.77
2023-04-16T14:12:31.982Z,0.65
2023-04-16T14:14:35.303Z,8.45
2023-04-16T14:16:38.054Z,4.00
2023-04-16T14:18:42.509Z,12.95
2023-04-16T14:20:45.298Z,1.92
2023-04-16T14:22:48.048Z,16.10
2023-04-16T14:24:51.058Z,5.43
2023-04-16T14:26:53.765Z,12.30
2023-04-16T14:28:56.511Z,5.93
2023-04-16T14:30:59.378Z,4.82
2023-04-16T14:33:02.218Z,15.07
2023-04-16T14:35:05.715Z,22.50
2023-04-16T14:37:09.233Z,5.25
2023-04-16T14:39:12.221Z,2.95
2023-04-16T14:41:15.112Z,2.67
2023-04-16T14:43:17.874Z,5.53
2023-04-16T14:45:20.621Z,1.50
2023-04-16T14:47:23.601Z,2.78
2023-04-16T14:49:26.743Z,1.95
2023-04-16T14:51:29.599Z,2.95
2023-04-16T14:53:32.313Z,60.08
2023-04-16T14:55:35.200Z,1.13
2023-04-16T14:57:38.659Z,14.82
2023-04-16T14:59:41.545Z,2.67
2023-04-16T15:01:44.413Z,0.95
2023-04-16T15:03:47.463Z,0.65
2023-04-16T15:05:54.872Z,0.40
2023-04-16T15:07:58.138Z,0.43
2023-04-16T15:10:01.043Z,0.60
2023-04-16T15:12:04.501Z,0.70
2023-04-16T15:14:07.327Z,0.40
2023-04-16T15:16:10.088Z,0.70
2023-04-16T15:18:12.868Z,0.80
2023-04-16T15:20:16.151Z,0.85
2023-04-16T15:22:18.962Z,0.55
2023-04-16T15:24:21.645Z,0.80
2023-04-16T15:26:24.790Z,1.25
2023-04-16T15:28:27.799Z,5.40
2023-04-16T15:30:31.309Z,3.78
2023-04-16T15:32:34.221Z,3.60
2023-04-16T15:34:36.909Z,2.00
2023-04-16T15:36:39.727Z,1.10
2023-04-16T15:38:42.551Z,1.48
2023-04-16T15:40:45.270Z,0.70
2023-04-16T15:42:48.206Z,1.60
2023-04-16T15:44:51.079Z,2.63
2023-04-16T15:46:53.925Z,1.48
2023-04-16T15:48:56.709Z,0.90
2023-04-16T15:50:59.519Z,3.90
2023-04-16T15:53:02.532Z,3.50
2023-04-16T15:55:05.829Z,2.33
2023-04-16T15:57:08.785Z,1.75
2023-04-16T15:59:11.726Z,1.55
2023-04-16T16:01:14.739Z,0.68
2023-04-16T16:03:19.944Z,1.33
2023-04-16T16:05:23.203Z,2.17
2023-04-16T16:07:26.900Z,1.40
2023-04-16T16:09:30.120Z,1.35
2023-04-16T16:11:33.198Z,1.05
2023-04-16T16:13:38.556Z,1.40
2023-04-16T16:15:41.697Z,1.33
2023-04-16T16:17:44.520Z,1.20
2023-04-16T16:19:47.358Z,1.27
2023-04-16T16:21:50.182Z,1.58
2023-04-16T16:23:53.042Z,0.98
2023-04-16T16:25:56.174Z,0.90
2023-04-16T16:27:59.701Z,1.58
2023-04-16T16:30:04.758Z,1.70
2023-04-16T16:32:08.453Z,0.80
2023-04-16T16:34:20.150Z,1.13
2023-04-16T16:36:24.057Z,0.80
2023-04-16T16:38:27.312Z,1.23
2023-04-16T16:40:31.192Z,1.00
2023-04-16T16:42:34.219Z,1.10
2023-04-16T16:44:37.342Z,1.02
2023-04-16T16:46:40.101Z,0.70
2023-04-16T16:48:42.865Z,0.75
2023-04-16T16:50:45.703Z,1.20
2023-04-16T16:52:48.474Z,0.80
2023-04-16T16:54:51.471Z,0.73
2023-04-16T16:56:54.200Z,1.10
2023-04-16T16:58:57.091Z,0.77
2023-04-16T17:01:00.005Z,1.23
2023-04-16T17:03:03.283Z,1.27
2023-04-16T17:05:06.930Z,0.73
2023-04-16T17:07:09.740Z,0.60
2023-04-16T17:09:13.293Z,0.80
2023-04-16T17:11:17.173Z,0.60
2023-04-16T17:13:20.717Z,0.93
2023-04-16T17:15:23.665Z,0.45
2023-04-16T17:17:28.497Z,0.77
2023-04-16T17:19:31.384Z,0.80
2023-04-16T17:21:34.203Z,1.00
2023-04-16T17:23:37.967Z,0.60
2023-04-16T17:25:42.274Z,0.50
2023-04-16T17:27:45.007Z,0.70
2023-04-16T17:29:47.686Z,0.90
2023-04-16T17:31:50.752Z,0.50
2023-04-16T17:33:53.837Z,0.88
2023-04-16T17:35:56.536Z,0.73
2023-04-16T17:37:59.362Z,1.38
2023-04-16T17:40:03.297Z,0.90
2023-04-16T17:42:06.578Z,0.55
2023-04-16T17:44:11.566Z,0.77
2023-04-16T17:46:14.633Z,0.55
2023-04-16T17:48:17.447Z,1.10
2023-04-16T17:50:21.295Z,0.52
2023-04-16T17:52:24.159Z,1.00
2023-04-16T17:54:26.969Z,0.73
2023-04-16T17:56:29.753Z,0.70
2023-04-16T17:58:35.285Z,0.68
2023-04-16T18:00:38.119Z,0.98
2023-04-16T18:02:41.752Z,0.80
2023-04-16T18:04:46.379Z,0.52
2023-04-16T18:06:49.386Z,0.60
2023-04-16T18:08:52.217Z,0.60
2023-04-16T18:10:57.733Z,0.52
2023-04-16T18:13:00.644Z,0.70
2023-04-16T18:15:03.887Z,1.30
2023-04-16T18:17:07.022Z,0.63
2023-04-16T18:19:09.911Z,1.10
2023-04-16T18:21:13.041Z,2.70
2023-04-16T18:23:15.904Z,1.63
2023-04-16T18:25:20.964Z,1.63
2023-04-16T18:27:32.356Z,1.65
2023-04-16T18:29:35.089Z,1.52
2023-04-16T18:31:38.259Z,1.50
2023-04-16T18:33:55.568Z,1.58
2023-04-16T18:36:02.499Z,1.70
2023-04-16T18:38:05.530Z,1.67
2023-04-16T18:40:10.936Z,1.35
2023-04-16T18:42:13.748Z,1.20
2023-04-16T18:44:17.627Z,1.20
2023-04-16T18:46:20.527Z,1.40
2023-04-16T18:48:23.344Z,1.17
2023-04-16T18:50:26.632Z,1.35
2023-04-16T18:52:29.411Z,0.80
2023-04-16T18:54:32.391Z,0.95
2023-04-16T18:56:35.127Z,1.00
2023-04-16T18:58:38.233Z,0.88
2023-04-16T19:00:41.440Z,0.98
2023-04-16T19:02:44.438Z,0.75
2023-04-16T19:04:47.261Z,0.65
2023-04-16T19:06:50.027Z,0.75
2023-04-16T19:08:52.720Z,1.25
2023-04-16T19:10:55.573Z,0.90
2023-04-16T19:12:58.328Z,0.80
2023-04-16T19:15:01.198Z,0.73
2023-04-16T19:17:04.421Z,0.77
2023-04-16T19:19:07.160Z,0.90
2023-04-16T19:21:11.088Z,1.13
2023-04-16T19:23:14.164Z,1.15
2023-04-16T19:25:16.931Z,0.90
2023-04-16T19:27:19.717Z,1.15
2023-04-16T19:29:22.516Z,1.00
2023-04-16T19:31:26.490Z,1.48
2023-04-16T19:33:29.337Z,1.23
2023-04-16T19:35:32.655Z,1.20
2023-04-16T19:37:35.312Z,0.90
2023-04-16T19:39:38.136Z,1.10
2023-04-16T19:41:40.894Z,1.10
2023-04-16T19:43:43.811Z,1.10
2023-04-16T19:45:48.189Z,1.52
2023-04-16T19:47:51.522Z,0.90
2023-04-16T19:49:54.618Z,1.35
2023-04-16T19:51:57.371Z,1.60
2023-04-16T19:54:00.168Z,1.75
2023-04-16T19:56:03.160Z,1.17
2023-04-16T19:58:06.714Z,1.60
2023-04-16T20:00:11.938Z,1.08
2023-04-16T20:02:14.866Z,1.15
2023-04-16T20:04:17.746Z,0.93
2023-04-16T20:06:20.640Z,1.73
2023-04-16T20:08:23.358Z,1.15
2023-04-16T20:10:26.768Z,1.13
2023-04-16T20:12:29.596Z,1.38
2023-04-16T20:14:32.256Z,1.48
2023-04-16T20:16:38.758Z,1.00
2023-04-16T20:18:41.684Z,1.10
2023-04-16T20:20:44.503Z,1.30
2023-04-16T20:22:47.155Z,1.40
2023-04-16T20:24:49.982Z,0.98
2023-04-16T20:26:52.817Z,1.17
2023-04-16T20:28:55.607Z,0.77
2023-04-16T20:30:58.767Z,0.90
2023-04-16T20:33:01.602Z,1.30
2023-04-16T20:35:05.806Z,1.08
2023-04-16T20:37:08.521Z,1.25
2023-04-16T20:39:11.822Z,1.15
2023-04-16T20:41:21.375Z,1.08
2023-04-16T20:43:26.209Z,1.05
2023-04-16T20:45:32.482Z,1.02
2023-04-16T20:47:35.548Z,0.93
2023-04-16T20:49:46.427Z,1.10
2023-04-16T20:51:49.385Z,1.27
2023-04-16T20:53:52.400Z,1.20
2023-04-16T20:55:55.550Z,0.60
2023-04-16T20:57:58.269Z,1.05
2023-04-16T21:00:01.064Z,0.80
2023-04-16T21:02:05.155Z,0.98
2023-04-16T21:04:08.119Z,0.98
2023-04-16T21:06:14.599Z,1.05
2023-04-16T21:08:18.344Z,0.70
2023-04-16T21:10:21.226Z,1.00
2023-04-16T21:12:25.308Z,0.98
2023-04-16T21:14:28.052Z,1.00
2023-04-16T21:16:31.135Z,0.73
2023-04-16T21:18:35.104Z,0.70
2023-04-16T21:20:38.296Z,0.93
2023-04-16T21:22:40.922Z,0.90
2023-04-16T21:24:43.839Z,1.10
2023-04-16T21:26:46.524Z,1.10
2023-04-16T21:28:49.215Z,0.90
2023-04-16T21:30:52.612Z,1.25
2023-04-16T21:32:55.469Z,0.95
2023-04-16T21:34:58.309Z,0.95
2023-04-16T21:37:01.166Z,0.90
2023-04-16T21:39:04.067Z,1.15
2023-04-16T21:41:06.813Z,1.10
2023-04-16T21:43:09.801Z,1.02
2023-04-16T21:45:14.684Z,1.05
2023-04-16T21:47:17.453Z,1.02
2023-04-16T21:49:20.256Z,0.95
2023-04-16T21:51:29.418Z,1.02
2023-04-16T21:53:33.554Z,1.27
2023-04-16T21:55:36.572Z,1.30
2023-04-16T21:57:40.159Z,1.20
2023-04-16T21:59:43.118Z,1.00
2023-04-16T22:01:46.068Z,1.02
2023-04-16T22:03:52.204Z,1.40
2023-04-16T22:06:01.250Z,1.50
2023-04-16T22:08:16.929Z,0.90
2023-04-16T22:10:20.309Z,1.23
2023-04-16T22:12:23.363Z,1.65
2023-04-16T22:14:27.936Z,1.38
2023-04-16T22:16:31.238Z,1.73
2023-04-16T22:18:34.113Z,2.40
2023-04-16T22:20:39.349Z,1.23
2023-04-16T22:22:43.201Z,1.23
2023-04-16T22:24:45.910Z,1.23
2023-04-16T22:26:48.663Z,1.23
2023-04-16T22:28:51.804Z,1.17
2023-04-16T22:30:54.420Z,1.30
2023-04-16T22:32:57.891Z,1.92
2023-04-16T22:35:00.998Z,0.93
2023-04-16T22:37:04.033Z,0.90
2023-04-16T22:39:08.778Z,1.45
2023-04-16T22:41:12.001Z,1.25
2023-04-16T22:43:14.930Z,1.10
2023-04-16T22:45:17.690Z,1.48
2023-04-16T22:47:21.687Z,1.10
2023-04-16T22:49:24.525Z,1.00
2023-04-16T22:51:27.227Z,0.93
2023-04-16T22:53:29.961Z,1.27
2023-04-16T22:55:32.691Z,0.82
2023-04-16T22:57:35.439Z,1.10
2023-04-16T22:59:38.113Z,1.52
2023-04-16T23:01:42.333Z,1.05
2023-04-16T23:03:45.223Z,1.13
2023-04-16T23:05:48.928Z,0.90
2023-04-16T23:07:51.605Z,1.20
2023-04-16T23:09:54.262Z,1.25
2023-04-16T23:11:57.605Z,1.20
2023-04-16T23:14:00.218Z,1.30
2023-04-16T23:16:02.954Z,1.48
2023-04-16T23:18:05.825Z,1.10
2023-04-16T23:20:10.263Z,1.27
2023-04-16T23:22:13.062Z,1.70
2023-04-16T23:24:15.996Z,1.95
2023-04-16T23:26:18.842Z,1.65
2023-04-16T23:28:22.429Z,1.10
2023-04-16T23:30:25.075Z,0.95
2023-04-16T23:32:27.994Z,1.20
2023-04-16T23:34:30.960Z,0.98
2023-04-16T23:36:33.620Z,1.15
2023-04-16T23:38:36.336Z,1.35
2023-04-16T23:40:39.115Z,1.23
2023-04-16T23:42:41.823Z,1.05
2023-04-16T23:44:44.537Z,1.10
2023-04-16T23:46:47.396Z,1.17
2023-04-16T23:48:50.150Z,1.30
2023-04-16T23:50:52.883Z,0.90
2023-04-16T23:52:55.670Z,1.30
2023-04-16T23:54:58.381Z,0.95
2023-04-16T23:57:01.832Z,1.25
2023-04-16T23:59:04.758Z,1.00
